Impacts METAR Board
IDs:

KMIA - Miami Intl, FL, US

Updated at: 2100 UTC 21 May 2022
Potential Impact None Slight Moderate High
Time 21/09Z 21/10Z 21/11Z 21/12Z 21/13Z 21/14Z 21/15Z 21/16Z 21/17Z 21/18Z 21/19Z 21/20Z 21/21Z
Temp82 82 82 83 83 85 86 86 87 88 87 86 86
Dewpt78 77 78 77 77 77 77 77 77 77 77 77 77
Altim30.10 30.11 30.12 30.12 30.13 30.14 30.15 30.17 30.17 30.16 30.15 30.14 30.13
VIS10 10 9 8 9 10 10 10 9 10 7 7 7
CIG17 19 20 20 20 21 21 26 23 24 24 32 30
CoverBKNBKNBKNBKNBKNBKNBKNBKNOVCBKNOVCOVCOVC
FltCatMVFRMVFRMVFRMVFRMVFRMVFRMVFRMVFRMVFRMVFRMVFRVFRMVFR
WX--------------------------
WDir110110130130130120120130120120140120110
WSpd12 10 11 14 14 16 15 12 14 14 13 10 11
WGst-- -- -- 21 22 23 23 -- -- -- 21 -- --
Raw hourly METARs
KMIA 210853Z 11012KT 10SM BKN017 BKN026 28/26 A3010 RMK AO2 SLP193 T02780256 55000 $
KMIA 210953Z 11010KT 10SM BKN019 28/25 A3011 RMK AO2 SLP195 T02780250 $
KMIA 211053Z 13011KT 9SM BKN020 BKN200 28/26 A3012 RMK AO2 SLP199 T02780256 $
KMIA 211153Z 13014G21KT 8SM BKN020 BKN200 28/25 A3012 RMK AO2 SLP200 70021 T02830250 10283 20278 51006 $
KMIA 211253Z 13014G22KT 9SM BKN020 BKN200 28/25 A3013 RMK AO2 SLP202 T02830250 $
KMIA 211353Z 12016G23KT 10SM BKN021 BKN028 29/25 A3014 RMK AO2 SLP206 T02940250 $
KMIA 211453Z 12015G23KT 10SM BKN021 BKN028 BKN250 30/25 A3015 RMK AO2 SLP211 T03000250 53012 $
KMIA 211553Z 13012KT 10SM SCT020 BKN026 BKN150 30/25 A3017 RMK AO2 SLP216 T03000250 $
KMIA 211653Z 12014KT 9SM BKN023 BKN150 OVC250 31/25 A3017 RMK AO2 SLP216 T03060250 $
KMIA 211753Z 12014KT 10SM BKN024 BKN036 BKN150 31/25 A3016 RMK AO2 SLP213 T03110250 10311 20283 50002 $
KMIA 211853Z 14013G21KT 7SM BKN024 BKN030 OVC150 31/25 A3015 RMK AO2 SLP210 T03060250 $
KMIA 211953Z 12010KT 7SM SCT024 BKN032 BKN150 OVC250 30/25 A3014 RMK AO2 SLP205 T03000250 $
KMIA 212053Z 11011KT 7SM SCT024 BKN030 BKN150 OVC250 30/25 A3013 RMK AO2 SLP202 T03000250 58011 $



Page loaded:  21:56 UTC  |   02:56 PM Pacific  |   03:56 PM Mountain  |   04:56 PM Central  |   05:56 PM Eastern

 

ADVISORIES

FORECASTS

FORECASTS

OBSERVATIONS

USER TOOLS

ABOUT US